sensor_id;sensor_type;location;lat;lon;timestamp;pressure;altitude;pressure_sealevel;temperature;humidity
23953;BME280;12163;49.316;6.092;2023-03-14T00:01:15;97487.94;;;11.98;74.09
23953;BME280;12163;49.316;6.092;2023-03-14T00:03:42;97472.84;;;11.97;74.39
23953;BME280;12163;49.316;6.092;2023-03-14T00:06:10;97468.25;;;11.98;74.66
23953;BME280;12163;49.316;6.092;2023-03-14T00:08:37;97474.09;;;12.00;74.42
23953;BME280;12163;49.316;6.092;2023-03-14T00:11:09;97480.28;;;12.00;75.05
23953;BME280;12163;49.316;6.092;2023-03-14T00:13:35;97459.81;;;11.99;74.66
23953;BME280;12163;49.316;6.092;2023-03-14T00:16:04;97464.09;;;12.00;73.92
23953;BME280;12163;49.316;6.092;2023-03-14T00:18:31;97482.31;;;12.03;73.12
23953;BME280;12163;49.316;6.092;2023-03-14T00:20:59;97467.66;;;12.04;73.83
23953;BME280;12163;49.316;6.092;2023-03-14T00:23:27;97471.94;;;12.05;73.97
23953;BME280;12163;49.316;6.092;2023-03-14T00:25:59;97472.63;;;12.02;73.62
23953;BME280;12163;49.316;6.092;2023-03-14T00:28:26;97479.16;;;12.01;73.39
23953;BME280;12163;49.316;6.092;2023-03-14T00:30:53;97480.75;;;12.02;73.19
23953;BME280;12163;49.316;6.092;2023-03-14T00:33:20;97474.97;;;12.04;72.83
23953;BME280;12163;49.316;6.092;2023-03-14T00:36:01;97458.41;;;12.05;73.25
23953;BME280;12163;49.316;6.092;2023-03-14T00:38:30;97472.81;;;12.09;73.21
23953;BME280;12163;49.316;6.092;2023-03-14T00:40:57;97479.03;;;12.10;72.48
23953;BME280;12163;49.316;6.092;2023-03-14T00:43:24;97466.28;;;12.10;73.05
23953;BME280;12163;49.316;6.092;2023-03-14T00:45:51;97478.66;;;12.11;73.29
23953;BME280;12163;49.316;6.092;2023-03-14T00:48:18;97478.22;;;12.09;72.91
23953;BME280;12163;49.316;6.092;2023-03-14T00:50:46;97477.41;;;12.09;73.35
23953;BME280;12163;49.316;6.092;2023-03-14T00:53:13;97479.78;;;12.10;72.88
23953;BME280;12163;49.316;6.092;2023-03-14T00:55:41;97482.50;;;12.10;72.82
23953;BME280;12163;49.316;6.092;2023-03-14T00:58:09;97493.31;;;12.10;73.24
23953;BME280;12163;49.316;6.092;2023-03-14T01:00:36;97503.69;;;12.08;73.10
23953;BME280;12163;49.316;6.092;2023-03-14T01:03:04;97498.28;;;12.08;72.85
23953;BME280;12163;49.316;6.092;2023-03-14T01:05:30;97496.50;;;12.00;73.11
23953;BME280;12163;49.316;6.092;2023-03-14T01:07:57;97501.31;;;12.07;73.36
23953;BME280;12163;49.316;6.092;2023-03-14T01:10:24;97497.84;;;12.06;74.00
23953;BME280;12163;49.316;6.092;2023-03-14T01:12:50;97493.13;;;12.03;74.09
23953;BME280;12163;49.316;6.092;2023-03-14T01:15:17;97489.97;;;12.01;74.11
23953;BME280;12163;49.316;6.092;2023-03-14T01:17:44;97496.50;;;12.00;73.62
23953;BME280;12163;49.316;6.092;2023-03-14T01:20:12;97490.19;;;11.96;73.68
23953;BME280;12163;49.316;6.092;2023-03-14T01:22:41;97486.72;;;11.96;72.97
23953;BME280;12163;49.316;6.092;2023-03-14T01:25:11;97493.16;;;11.91;73.16
23953;BME280;12163;49.316;6.092;2023-03-14T01:27:38;97478.75;;;11.87;73.58
23953;BME280;12163;49.316;6.092;2023-03-14T01:30:05;97490.25;;;11.84;74.11
23953;BME280;12163;49.316;6.092;2023-03-14T01:32:32;97489.81;;;11.82;73.58
23953;BME280;12163;49.316;6.092;2023-03-14T01:34:59;97492.06;;;11.80;73.93
23953;BME280;12163;49.316;6.092;2023-03-14T01:37:25;97487.44;;;11.81;74.22
23953;BME280;12163;49.316;6.092;2023-03-14T01:39:52;97477.44;;;11.81;74.05
23953;BME280;12163;49.316;6.092;2023-03-14T01:42:18;97475.84;;;11.80;73.90
23953;BME280;12163;49.316;6.092;2023-03-14T01:47:19;97473.59;;;11.82;72.66
23953;BME280;12163;49.316;6.092;2023-03-14T01:49:50;97465.81;;;11.81;72.76
23953;BME280;12163;49.316;6.092;2023-03-14T01:54:52;97454.94;;;11.77;72.56
23953;BME280;12163;49.316;6.092;2023-03-14T01:57:40;97453.25;;;11.73;73.13
23953;BME280;12163;49.316;6.092;2023-03-14T02:00:11;97449.31;;;11.71;73.79
23953;BME280;12163;49.316;6.092;2023-03-14T02:02:45;97447.53;;;11.63;74.58
23953;BME280;12163;49.316;6.092;2023-03-14T02:05:14;97440.34;;;11.55;75.07
23953;BME280;12163;49.316;6.092;2023-03-14T02:08:01;97425.28;;;11.42;76.02
23953;BME280;12163;49.316;6.092;2023-03-14T02:10:38;97423.03;;;11.32;77.41
23953;BME280;12163;49.316;6.092;2023-03-14T02:13:07;97410.22;;;11.29;78.08
23953;BME280;12163;49.316;6.092;2023-03-14T02:15:34;97402.38;;;11.24;78.22
23953;BME280;12163;49.316;6.092;2023-03-14T02:18:02;97395.75;;;11.21;78.29
23953;BME280;12163;49.316;6.092;2023-03-14T02:20:47;97390.25;;;11.18;78.83
23953;BME280;12163;49.316;6.092;2023-03-14T02:23:17;97394.41;;;11.15;78.92
23953;BME280;12163;49.316;6.092;2023-03-14T02:26:34;97393.50;;;11.11;79.35
23953;BME280;12163;49.316;6.092;2023-03-14T02:28:52;97391.81;;;11.07;79.85
23953;BME280;12163;49.316;6.092;2023-03-14T02:31:20;97394.88;;;11.05;80.62
23953;BME280;12163;49.316;6.092;2023-03-14T02:33:48;97393.19;;;11.01;80.62
23953;BME280;12163;49.316;6.092;2023-03-14T02:36:16;97386.91;;;10.97;80.88
23953;BME280;12163;49.316;6.092;2023-03-14T02:38:53;97372.53;;;10.93;81.38
23953;BME280;12163;49.316;6.092;2023-03-14T02:41:22;97383.56;;;10.88;81.58
23953;BME280;12163;49.316;6.092;2023-03-14T02:43:48;97372.19;;;10.82;81.60
23953;BME280;12163;49.316;6.092;2023-03-14T02:46:20;97376.34;;;10.80;82.04
23953;BME280;12163;49.316;6.092;2023-03-14T02:51:44;97356.13;;;10.74;82.42
23953;BME280;12163;49.316;6.092;2023-03-14T02:54:11;97359.25;;;10.76;82.64
23953;BME280;12163;49.316;6.092;2023-03-14T02:56:38;97353.88;;;10.76;82.45
23953;BME280;12163;49.316;6.092;2023-03-14T02:59:05;97347.22;;;10.73;82.59
23953;BME280;12163;49.316;6.092;2023-03-14T03:01:33;97350.72;;;10.74;82.50
23953;BME280;12163;49.316;6.092;2023-03-14T03:03:59;97342.97;;;10.72;82.05
23953;BME280;12163;49.316;6.092;2023-03-14T03:06:26;97341.31;;;10.68;82.55
23953;BME280;12163;49.316;6.092;2023-03-14T03:08:52;97339.06;;;10.70;82.86
23953;BME280;12163;49.316;6.092;2023-03-14T03:11:19;97353.75;;;10.72;82.61
23953;BME280;12163;49.316;6.092;2023-03-14T03:13:45;97345.66;;;10.72;82.89
23953;BME280;12163;49.316;6.092;2023-03-14T03:16:12;97329.03;;;10.70;82.08
23953;BME280;12163;49.316;6.092;2023-03-14T03:18:41;97333.66;;;10.70;82.83
23953;BME280;12163;49.316;6.092;2023-03-14T03:21:07;97337.03;;;10.67;82.44
23953;BME280;12163;49.316;6.092;2023-03-14T03:23:36;97333.88;;;10.65;82.88
23953;BME280;12163;49.316;6.092;2023-03-14T03:26:02;97329.59;;;10.64;83.32
23953;BME280;12163;49.316;6.092;2023-03-14T03:28:29;97337.59;;;10.60;82.93
23953;BME280;12163;49.316;6.092;2023-03-14T03:30:56;97336.34;;;10.58;83.20
23953;BME280;12163;49.316;6.092;2023-03-14T03:33:22;97334.00;;;10.56;83.32
23953;BME280;12163;49.316;6.092;2023-03-14T03:35:51;97325.47;;;10.54;83.66
23953;BME280;12163;49.316;6.092;2023-03-14T03:38:18;97338.03;;;10.50;84.13
23953;BME280;12163;49.316;6.092;2023-03-14T03:40:46;97336.81;;;10.48;84.06
23953;BME280;12163;49.316;6.092;2023-03-14T03:43:13;97332.09;;;10.45;84.22
23953;BME280;12163;49.316;6.092;2023-03-14T03:45:39;97315.94;;;10.45;84.62
23953;BME280;12163;49.316;6.092;2023-03-14T03:48:06;97332.09;;;10.45;84.43
23953;BME280;12163;49.316;6.092;2023-03-14T03:50:33;97328.94;;;10.43;84.59
23953;BME280;12163;49.316;6.092;2023-03-14T03:52:59;97316.56;;;10.42;85.14
23953;BME280;12163;49.316;6.092;2023-03-14T03:55:26;97315.00;;;10.41;85.33
23953;BME280;12163;49.316;6.092;2023-03-14T03:57:55;97316.13;;;10.40;85.23
23953;BME280;12163;49.316;6.092;2023-03-14T04:00:21;97319.63;;;10.40;85.52
23953;BME280;12163;49.316;6.092;2023-03-14T04:02:48;97329.16;;;10.38;85.13
23953;BME280;12163;49.316;6.092;2023-03-14T04:05:15;97309.59;;;10.41;85.10
23953;BME280;12163;49.316;6.092;2023-03-14T04:07:42;97309.59;;;10.41;85.29
23953;BME280;12163;49.316;6.092;2023-03-14T04:10:09;97315.00;;;10.41;85.06
23953;BME280;12163;49.316;6.092;2023-03-14T04:12:35;97300.41;;;10.42;85.34
23953;BME280;12163;49.316;6.092;2023-03-14T04:15:02;97305.78;;;10.42;85.45
23953;BME280;12163;49.316;6.092;2023-03-14T04:17:29;97289.63;;;10.42;85.14
23953;BME280;12163;49.316;6.092;2023-03-14T04:19:55;97281.53;;;10.42;84.61
23953;BME280;12163;49.316;6.092;2023-03-14T04:22:22;97287.41;;;10.44;84.33
23953;BME280;12163;49.316;6.092;2023-03-14T04:24:48;97295.94;;;10.46;84.41
23953;BME280;12163;49.316;6.092;2023-03-14T04:27:15;97282.91;;;10.48;84.39
23953;BME280;12163;49.316;6.092;2023-03-14T04:29:42;97279.41;;;10.47;84.16
23953;BME280;12163;49.316;6.092;2023-03-14T04:32:09;97267.84;;;10.47;84.34
23953;BME280;12163;49.316;6.092;2023-03-14T04:34:36;97275.94;;;10.47;84.47
23953;BME280;12163;49.316;6.092;2023-03-14T04:37:03;97281.31;;;10.47;84.08
23953;BME280;12163;49.316;6.092;2023-03-14T04:39:29;97281.66;;;10.45;84.36
23953;BME280;12163;49.316;6.092;2023-03-14T04:41:56;97273.56;;;10.45;84.61
23953;BME280;12163;49.316;6.092;2023-03-14T04:44:22;97283.56;;;10.45;84.35
23953;BME280;12163;49.316;6.092;2023-03-14T04:46:49;97266.47;;;10.41;84.18
23953;BME280;12163;49.316;6.092;2023-03-14T04:49:16;97279.50;;;10.39;84.32
23953;BME280;12163;49.316;6.092;2023-03-14T04:51:42;97270.66;;;10.38;84.21
23953;BME280;12163;49.316;6.092;2023-03-14T04:54:09;97265.59;;;10.37;84.49
23953;BME280;12163;49.316;6.092;2023-03-14T04:56:36;97262.91;;;10.37;84.93
23953;BME280;12163;49.316;6.092;2023-03-14T04:59:04;97264.47;;;10.38;85.21
23953;BME280;12163;49.316;6.092;2023-03-14T05:01:30;97270.97;;;10.37;85.57
23953;BME280;12163;49.316;6.092;2023-03-14T05:03:57;97273.69;;;10.37;85.60
23953;BME280;12163;49.316;6.092;2023-03-14T05:06:24;97263.94;;;10.32;85.70
23953;BME280;12163;49.316;6.092;2023-03-14T05:08:50;97279.31;;;10.32;85.71
23953;BME280;12163;49.316;6.092;2023-03-14T05:11:17;97261.56;;;10.31;85.69
23953;BME280;12163;49.316;6.092;2023-03-14T05:13:44;97258.63;;;10.36;85.81
23953;BME280;12163;49.316;6.092;2023-03-14T05:16:11;97243.69;;;10.38;85.72
23953;BME280;12163;49.316;6.092;2023-03-14T05:18:37;97253.34;;;10.39;85.55
23953;BME280;12163;49.316;6.092;2023-03-14T05:21:04;97251.09;;;10.41;85.59
23953;BME280;12163;49.316;6.092;2023-03-14T05:23:31;97251.88;;;10.42;85.14
23953;BME280;12163;49.316;6.092;2023-03-14T05:25:57;97232.69;;;10.43;85.03
23953;BME280;12163;49.316;6.092;2023-03-14T05:28:24;97246.16;;;10.43;85.44
23953;BME280;12163;49.316;6.092;2023-03-14T05:30:51;97251.22;;;10.45;85.15
23953;BME280;12163;49.316;6.092;2023-03-14T05:33:17;97246.59;;;10.45;85.23
23953;BME280;12163;49.316;6.092;2023-03-14T05:35:44;97239.75;;;10.48;85.50
23953;BME280;12163;49.316;6.092;2023-03-14T05:38:11;97243.91;;;10.45;85.15
23953;BME280;12163;49.316;6.092;2023-03-14T05:40:37;97238.19;;;10.47;85.12
23953;BME280;12163;49.316;6.092;2023-03-14T05:43:04;97228.16;;;10.47;85.42
23953;BME280;12163;49.316;6.092;2023-03-14T05:45:30;97243.59;;;10.47;84.99
23953;BME280;12163;49.316;6.092;2023-03-14T05:47:59;97215.06;;;10.46;85.29
23953;BME280;12163;49.316;6.092;2023-03-14T05:50:26;97218.06;;;10.44;85.18
23953;BME280;12163;49.316;6.092;2023-03-14T05:52:53;97222.69;;;10.44;85.64
23953;BME280;12163;49.316;6.092;2023-03-14T05:55:19;97218.06;;;10.44;86.09
23953;BME280;12163;49.316;6.092;2023-03-14T05:57:46;97229.97;;;10.55;85.61
23953;BME280;12163;49.316;6.092;2023-03-14T06:00:13;97226.03;;;10.53;85.16
23953;BME280;12163;49.316;6.092;2023-03-14T06:02:39;97237.72;;;10.57;85.79
23953;BME280;12163;49.316;6.092;2023-03-14T06:05:07;97227.34;;;10.71;84.90
23953;BME280;12163;49.316;6.092;2023-03-14T06:07:34;97230.34;;;10.81;85.61
23953;BME280;12163;49.316;6.092;2023-03-14T06:10:00;97230.88;;;10.87;83.95
23953;BME280;12163;49.316;6.092;2023-03-14T06:12:27;97219.13;;;10.79;85.12
23953;BME280;12163;49.316;6.092;2023-03-14T06:14:54;97223.47;;;10.84;85.28
23953;BME280;12163;49.316;6.092;2023-03-14T06:17:21;97235.44;;;10.71;84.94
23953;BME280;12163;49.316;6.092;2023-03-14T06:19:47;97228.94;;;10.60;85.46
23953;BME280;12163;49.316;6.092;2023-03-14T06:22:14;97240.53;;;10.48;86.76
23953;BME280;12163;49.316;6.092;2023-03-14T06:24:40;97244.25;;;10.44;86.80
23953;BME280;12163;49.316;6.092;2023-03-14T06:27:07;97232.69;;;10.43;87.33
23953;BME280;12163;49.316;6.092;2023-03-14T06:29:34;97232.69;;;10.43;87.34
23953;BME280;12163;49.316;6.092;2023-03-14T06:32:00;97227.84;;;10.37;87.44
23953;BME280;12163;49.316;6.092;2023-03-14T06:34:27;97230.78;;;10.32;87.71
23953;BME280;12163;49.316;6.092;2023-03-14T06:36:53;97226.53;;;10.31;87.70
23953;BME280;12163;49.316;6.092;2023-03-14T06:39:20;97230.78;;;10.32;87.64
23953;BME280;12163;49.316;6.092;2023-03-14T06:41:47;97233.94;;;10.34;88.33
23953;BME280;12163;49.316;6.092;2023-03-14T06:44:13;97234.81;;;10.38;87.65
23953;BME280;12163;49.316;6.092;2023-03-14T06:46:40;97238.06;;;10.43;87.85
23953;BME280;12163;49.316;6.092;2023-03-14T06:49:06;97243.59;;;10.47;87.13
23953;BME280;12163;49.316;6.092;2023-03-14T06:51:33;97235.50;;;10.47;87.25
23953;BME280;12163;49.316;6.092;2023-03-14T06:54:00;97235.94;;;10.49;87.39
23953;BME280;12163;49.316;6.092;2023-03-14T06:56:27;97242.31;;;10.56;87.58
23953;BME280;12163;49.316;6.092;2023-03-14T06:58:53;97237.72;;;10.57;88.05
23953;BME280;12163;49.316;6.092;2023-03-14T07:01:26;97244.91;;;10.53;87.98
23953;BME280;12163;49.316;6.092;2023-03-14T07:03:53;97248.28;;;10.50;88.16
23953;BME280;12163;49.316;6.092;2023-03-14T07:06:20;97253.25;;;10.48;87.79
23953;BME280;12163;49.316;6.092;2023-03-14T07:08:47;97233.69;;;10.51;88.24
23953;BME280;12163;49.316;6.092;2023-03-14T07:11:14;97242.97;;;10.53;87.93
23953;BME280;12163;49.316;6.092;2023-03-14T07:13:41;97238.25;;;10.62;87.92
23953;BME280;12163;49.316;6.092;2023-03-14T07:16:08;97248.94;;;10.71;87.46
23953;BME280;12163;49.316;6.092;2023-03-14T07:18:34;97237.44;;;10.74;86.82
23953;BME280;12163;49.316;6.092;2023-03-14T07:21:01;97251.63;;;10.71;86.80
23953;BME280;12163;49.316;6.092;2023-03-14T07:23:28;97230.72;;;10.68;87.29
23953;BME280;12163;49.316;6.092;2023-03-14T07:25:54;97248.03;;;10.67;87.03
23953;BME280;12163;49.316;6.092;2023-03-14T07:28:21;97254.56;;;10.66;86.64
23953;BME280;12163;49.316;6.092;2023-03-14T07:30:49;97235.69;;;10.66;87.47
23953;BME280;12163;49.316;6.092;2023-03-14T07:33:16;97244.22;;;10.68;87.60
23953;BME280;12163;49.316;6.092;2023-03-14T07:35:42;97244.97;;;10.68;87.48
23953;BME280;12163;49.316;6.092;2023-03-14T07:38:09;97246.66;;;10.73;87.16
23953;BME280;12163;49.316;6.092;2023-03-14T07:40:36;97243.72;;;10.78;87.30
23953;BME280;12163;49.316;6.092;2023-03-14T07:43:02;97248.78;;;10.79;86.85
23953;BME280;12163;49.316;6.092;2023-03-14T07:45:29;97243.03;;;10.81;86.32
23953;BME280;12163;49.316;6.092;2023-03-14T07:47:55;97247.31;;;10.82;86.09
23953;BME280;12163;49.316;6.092;2023-03-14T07:50:25;97260.78;;;10.82;86.90
23953;BME280;12163;49.316;6.092;2023-03-14T07:52:53;97253.25;;;10.87;86.88
23953;BME280;12163;49.316;6.092;2023-03-14T07:55:20;97263.03;;;10.92;86.54
23953;BME280;12163;49.316;6.092;2023-03-14T07:57:47;97260.34;;;10.92;86.92
23953;BME280;12163;49.316;6.092;2023-03-14T08:00:13;97252.69;;;10.94;87.32
23953;BME280;12163;49.316;6.092;2023-03-14T08:02:41;97246.59;;;10.97;87.29
23953;BME280;12163;49.316;6.092;2023-03-14T08:05:08;97258.94;;;10.98;87.14
23953;BME280;12163;49.316;6.092;2023-03-14T08:07:35;97259.72;;;10.98;86.62
23953;BME280;12163;49.316;6.092;2023-03-14T08:10:03;97244.34;;;10.99;86.60
23953;BME280;12163;49.316;6.092;2023-03-14T08:12:29;97248.94;;;10.98;86.38
23953;BME280;12163;49.316;6.092;2023-03-14T08:14:56;97246.69;;;11.00;86.96
23953;BME280;12163;49.316;6.092;2023-03-14T08:17:22;97251.41;;;11.03;86.74
23953;BME280;12163;49.316;6.092;2023-03-14T08:19:50;97247.59;;;11.04;86.70
23953;BME280;12163;49.316;6.092;2023-03-14T08:22:17;97246.78;;;11.04;86.20
23953;BME280;12163;49.316;6.092;2023-03-14T08:24:45;97243.75;;;11.05;87.49
23953;BME280;12163;49.316;6.092;2023-03-14T08:27:12;97262.28;;;11.07;87.41
23953;BME280;12163;49.316;6.092;2023-03-14T08:29:40;97270.75;;;11.05;86.89
23953;BME280;12163;49.316;6.092;2023-03-14T08:32:08;97275.44;;;11.08;87.59
23953;BME280;12163;49.316;6.092;2023-03-14T08:34:35;97273.06;;;11.07;87.11
23953;BME280;12163;49.316;6.092;2023-03-14T08:37:01;97287.47;;;11.11;87.10
23953;BME280;12163;49.316;6.092;2023-03-14T08:39:36;97283.28;;;11.13;87.39
23953;BME280;12163;49.316;6.092;2023-03-14T08:42:03;97304.56;;;11.15;86.90
23953;BME280;12163;49.316;6.092;2023-03-14T08:44:30;97331.44;;;11.11;86.75
23953;BME280;12163;49.316;6.092;2023-03-14T08:46:56;97333.38;;;11.11;85.92
23953;BME280;12163;49.316;6.092;2023-03-14T08:49:23;97357.09;;;11.05;82.04
23953;BME280;12163;49.316;6.092;2023-03-14T08:51:50;97381.28;;;10.90;79.49
23953;BME280;12163;49.316;6.092;2023-03-14T08:54:16;97386.03;;;10.69;79.35
23953;BME280;12163;49.316;6.092;2023-03-14T08:56:43;97384.66;;;10.51;80.27
23953;BME280;12163;49.316;6.092;2023-03-14T08:59:10;97397.22;;;10.35;78.65
23953;BME280;12163;49.316;6.092;2023-03-14T09:01:37;97402.25;;;10.24;78.91
23953;BME280;12163;49.316;6.092;2023-03-14T09:04:04;97395.75;;;10.13;77.89
23953;BME280;12163;49.316;6.092;2023-03-14T09:06:30;97443.22;;;10.06;78.94
23953;BME280;12163;49.316;6.092;2023-03-14T09:08:57;97408.09;;;9.94;78.28
23953;BME280;12163;49.316;6.092;2023-03-14T09:11:24;97433.22;;;9.86;78.38
23953;BME280;12163;49.316;6.092;2023-03-14T09:13:50;97452.97;;;9.78;77.38
23953;BME280;12163;49.316;6.092;2023-03-14T09:16:17;97460.28;;;9.69;78.15
23953;BME280;12163;49.316;6.092;2023-03-14T09:18:44;97462.28;;;9.60;78.04
23953;BME280;12163;49.316;6.092;2023-03-14T09:21:10;97477.03;;;9.54;78.21
23953;BME280;12163;49.316;6.092;2023-03-14T09:23:38;97492.47;;;9.45;78.56
23953;BME280;12163;49.316;6.092;2023-03-14T09:26:05;97503.09;;;9.42;78.54
23953;BME280;12163;49.316;6.092;2023-03-14T09:28:32;97514.53;;;9.39;78.30
23953;BME280;12163;49.316;6.092;2023-03-14T09:31:05;97522.63;;;9.30;77.71
23953;BME280;12163;49.316;6.092;2023-03-14T09:33:32;97530.09;;;9.33;77.52
23953;BME280;12163;49.316;6.092;2023-03-14T09:35:59;97551.75;;;9.37;77.42
23953;BME280;12163;49.316;6.092;2023-03-14T09:38:26;97553.28;;;9.46;77.72
23953;BME280;12163;49.316;6.092;2023-03-14T09:40:54;97560.84;;;9.53;77.59
23953;BME280;12163;49.316;6.092;2023-03-14T09:43:22;97624.50;;;9.57;76.22
23953;BME280;12163;49.316;6.092;2023-03-14T09:45:50;97625.88;;;9.63;74.04
23953;BME280;12163;49.316;6.092;2023-03-14T09:48:21;97608.34;;;9.57;72.11
23953;BME280;12163;49.316;6.092;2023-03-14T09:50:50;97626.88;;;9.50;71.82
23953;BME280;12163;49.316;6.092;2023-03-14T09:53:21;97627.50;;;9.56;72.67
23953;BME280;12163;49.316;6.092;2023-03-14T09:55:50;97637.75;;;9.62;70.96
23953;BME280;12163;49.316;6.092;2023-03-14T09:58:22;97666.25;;;9.63;68.90
23953;BME280;12163;49.316;6.092;2023-03-14T10:00:52;97660.53;;;9.65;67.18
23953;BME280;12163;49.316;6.092;2023-03-14T10:05:54;97661.53;;;9.60;65.76
23953;BME280;12163;49.316;6.092;2023-03-14T10:08:22;97680.84;;;9.62;66.84
23953;BME280;12163;49.316;6.092;2023-03-14T10:10:48;97674.81;;;9.65;67.38
23953;BME280;12163;49.316;6.092;2023-03-14T10:13:24;97655.09;;;9.73;66.32
23953;BME280;12163;49.316;6.092;2023-03-14T10:16:02;97674.38;;;9.84;64.94
23953;BME280;12163;49.316;6.092;2023-03-14T10:18:30;97700.63;;;9.95;65.67
23953;BME280;12163;49.316;6.092;2023-03-14T10:23:31;97717.75;;;9.99;63.18
23953;BME280;12163;49.316;6.092;2023-03-14T10:26:12;97745.75;;;10.06;62.60
23953;BME280;12163;49.316;6.092;2023-03-14T10:28:44;97727.91;;;10.02;60.22
23953;BME280;12163;49.316;6.092;2023-03-14T10:31:11;97737.56;;;9.95;58.38
23953;BME280;12163;49.316;6.092;2023-03-14T10:33:38;97728.34;;;10.04;60.28
23953;BME280;12163;49.316;6.092;2023-03-14T10:36:31;97767.31;;;10.06;56.74
23953;BME280;12163;49.316;6.092;2023-03-14T10:39:22;97748.47;;;9.98;55.63
23953;BME280;12163;49.316;6.092;2023-03-14T10:41:52;97772.59;;;9.95;55.55
23953;BME280;12163;49.316;6.092;2023-03-14T10:44:23;97767.31;;;9.98;56.19
23953;BME280;12163;49.316;6.092;2023-03-14T10:46:56;97774.63;;;10.06;55.32
23953;BME280;12163;49.316;6.092;2023-03-14T10:49:36;97827.56;;;10.10;56.17
23953;BME280;12163;49.316;6.092;2023-03-14T10:52:15;97798.88;;;10.06;55.32
23953;BME280;12163;49.316;6.092;2023-03-14T10:54:47;97797.28;;;10.13;55.78
23953;BME280;12163;49.316;6.092;2023-03-14T10:57:14;97819.53;;;10.31;55.74
23953;BME280;12163;49.316;6.092;2023-03-14T10:59:42;97842.28;;;10.42;54.51
23953;BME280;12163;49.316;6.092;2023-03-14T11:05:29;97863.06;;;10.50;53.25
23953;BME280;12163;49.316;6.092;2023-03-14T11:08:04;97894.06;;;10.64;50.35
23953;BME280;12163;49.316;6.092;2023-03-14T11:10:37;97893.88;;;10.69;49.64
23953;BME280;12163;49.316;6.092;2023-03-14T11:13:31;97895.34;;;10.67;48.30
23953;BME280;12163;49.316;6.092;2023-03-14T11:24:49;97934.81;;;10.34;48.80
23953;BME280;12163;49.316;6.092;2023-03-14T11:27:28;97928.13;;;10.40;49.62
23953;BME280;12163;49.316;6.092;2023-03-14T11:30:15;97944.41;;;10.52;49.59
23953;BME280;12163;49.316;6.092;2023-03-14T11:37:54;97988.78;;;10.63;50.05
23953;BME280;12163;49.316;6.092;2023-03-14T11:40:25;97970.94;;;10.87;49.31
23953;BME280;12163;49.316;6.092;2023-03-14T11:43:18;97982.56;;;10.79;46.76
23953;BME280;12163;49.316;6.092;2023-03-14T11:45:48;98006.09;;;10.62;47.33
23953;BME280;12163;49.316;6.092;2023-03-14T11:48:32;98029.94;;;10.43;48.00
23953;BME280;12163;49.316;6.092;2023-03-14T11:51:07;98008.53;;;10.29;48.39
23953;BME280;12163;49.316;6.092;2023-03-14T11:53:49;98028.06;;;10.35;47.26
23953;BME280;12163;49.316;6.092;2023-03-14T11:56:31;98044.88;;;10.32;45.35
23953;BME280;12163;49.316;6.092;2023-03-14T11:59:12;98028.22;;;10.38;46.91
23953;BME280;12163;49.316;6.092;2023-03-14T12:02:00;98043.91;;;10.45;46.62
23953;BME280;12163;49.316;6.092;2023-03-14T12:07:03;98082.59;;;10.49;47.84
23953;BME280;12163;49.316;6.092;2023-03-14T12:09:32;98067.69;;;10.43;47.25
23953;BME280;12163;49.316;6.092;2023-03-14T12:12:02;98065.63;;;10.31;46.04
23953;BME280;12163;49.316;6.092;2023-03-14T12:14:33;98069.78;;;10.20;46.72
23953;BME280;12163;49.316;6.092;2023-03-14T12:17:26;98087.38;;;10.18;47.34
23953;BME280;12163;49.316;6.092;2023-03-14T12:20:17;98091.97;;;10.17;47.76
23953;BME280;12163;49.316;6.092;2023-03-14T12:22:51;98097.53;;;10.21;47.61
23953;BME280;12163;49.316;6.092;2023-03-14T12:25:25;98107.34;;;10.17;48.45
23953;BME280;12163;49.316;6.092;2023-03-14T12:35:48;98116.72;;;10.28;50.06
23953;BME280;12163;49.316;6.092;2023-03-14T12:38:16;98124.31;;;10.26;50.66
23953;BME280;12163;49.316;6.092;2023-03-14T12:41:01;98140.00;;;10.41;51.33
23953;BME280;12163;49.316;6.092;2023-03-14T12:43:31;98136.38;;;10.54;51.23
23953;BME280;12163;49.316;6.092;2023-03-14T12:46:14;98158.53;;;10.76;50.07
23953;BME280;12163;49.316;6.092;2023-03-14T12:49:09;98142.66;;;10.92;50.08
23953;BME280;12163;49.316;6.092;2023-03-14T12:51:36;98156.47;;;10.99;49.64
23953;BME280;12163;49.316;6.092;2023-03-14T12:54:27;98164.56;;;10.90;50.83
23953;BME280;12163;49.316;6.092;2023-03-14T12:59:40;98154.69;;;11.11;50.16
23953;BME280;12163;49.316;6.092;2023-03-14T13:02:38;98142.78;;;11.04;50.23
23953;BME280;12163;49.316;6.092;2023-03-14T13:05:16;98148.97;;;11.13;50.90
23953;BME280;12163;49.316;6.092;2023-03-14T13:10:21;98169.09;;;11.24;49.23
23953;BME280;12163;49.316;6.092;2023-03-14T13:12:55;98157.69;;;11.10;49.50
23953;BME280;12163;49.316;6.092;2023-03-14T13:15:43;98169.13;;;11.07;50.71
23953;BME280;12163;49.316;6.092;2023-03-14T13:18:24;98164.41;;;10.87;50.62
23953;BME280;12163;49.316;6.092;2023-03-14T13:20:55;98171.91;;;10.73;50.91
23953;BME280;12163;49.316;6.092;2023-03-14T13:23:30;98177.28;;;10.56;50.23
23953;BME280;12163;49.316;6.092;2023-03-14T13:25:59;98171.41;;;10.37;49.92
23953;BME280;12163;49.316;6.092;2023-03-14T13:28:28;98159.38;;;10.26;49.14
23953;BME280;12163;49.316;6.092;2023-03-14T13:31:00;98166.34;;;10.18;49.48
23953;BME280;12163;49.316;6.092;2023-03-14T13:33:27;98187.09;;;10.18;49.85
23953;BME280;12163;49.316;6.092;2023-03-14T13:35:55;98190.78;;;10.22;50.41
23953;BME280;12163;49.316;6.092;2023-03-14T13:38:24;98185.22;;;10.27;49.72
23953;BME280;12163;49.316;6.092;2023-03-14T13:40:54;98187.28;;;10.30;50.18
23953;BME280;12163;49.316;6.092;2023-03-14T13:43:33;98189.34;;;10.33;49.69
23953;BME280;12163;49.316;6.092;2023-03-14T13:46:21;98199.81;;;10.26;50.08
23953;BME280;12163;49.316;6.092;2023-03-14T13:49:00;98206.31;;;10.25;51.37
23953;BME280;12163;49.316;6.092;2023-03-14T13:51:29;98213.75;;;10.28;49.75
23953;BME280;12163;49.316;6.092;2023-03-14T13:53:58;98212.00;;;10.23;50.43
23953;BME280;12163;49.316;6.092;2023-03-14T13:56:31;98203.91;;;10.23;50.89
23953;BME280;12163;49.316;6.092;2023-03-14T13:58:58;98219.94;;;10.28;50.84
23953;BME280;12163;49.316;6.092;2023-03-14T14:01:31;98218.06;;;10.29;51.24